createdAt,value
2019-04-25T00:00:51.331Z,14.20
2019-04-25T00:03:22.206Z,14.00
2019-04-25T00:05:49.820Z,14.20
2019-04-25T00:08:17.469Z,16.60
2019-04-25T00:10:45.435Z,12.73
2019-04-25T00:13:13.546Z,14.53
2019-04-25T00:15:41.932Z,14.60
2019-04-25T00:18:11.923Z,18.90
2019-04-25T00:20:44.681Z,18.27
2019-04-25T00:23:15.138Z,17.17
2019-04-25T00:25:55.815Z,16.40
2019-04-25T00:28:23.317Z,13.57
2019-04-25T00:30:52.269Z,17.17
2019-04-25T00:33:21.573Z,15.17
2019-04-25T00:35:49.603Z,19.83
2019-04-25T00:38:17.795Z,16.30
2019-04-25T00:40:45.922Z,16.90
2019-04-25T00:43:13.414Z,15.43
2019-04-25T00:45:42.387Z,12.87
2019-04-25T00:48:10.242Z,15.80
2019-04-25T00:50:37.767Z,20.33
2019-04-25T00:53:05.310Z,12.33
2019-04-25T00:55:32.774Z,13.70
2019-04-25T00:58:12.299Z,16.83
2019-04-25T01:00:58.851Z,19.33
2019-04-25T01:03:28.360Z,18.03
2019-04-25T01:05:55.798Z,12.40
2019-04-25T01:08:23.190Z,13.90
2019-04-25T01:10:52.275Z,18.23
2019-04-25T01:13:20.301Z,15.90
2019-04-25T01:15:48.497Z,13.33
2019-04-25T01:18:15.982Z,18.30
2019-04-25T01:20:43.517Z,19.23
2019-04-25T01:23:11.177Z,19.37
2019-04-25T01:25:42.553Z,17.53
2019-04-25T01:28:08.035Z,20.20
2019-04-25T01:30:35.664Z,17.90
2019-04-25T01:33:03.568Z,20.63
2019-04-25T01:35:55.672Z,20.77
2019-04-25T01:38:39.467Z,19.30
2019-04-25T01:41:35.522Z,18.20
2019-04-25T01:44:11.450Z,18.57
2019-04-25T01:46:40.642Z,22.80
2019-04-25T01:49:08.131Z,22.23
2019-04-25T01:51:35.656Z,19.10
2019-04-25T01:54:04.109Z,23.97
2019-04-25T01:56:33.165Z,21.33
2019-04-25T01:59:01.600Z,26.23
2019-04-25T02:01:29.517Z,23.30
2019-04-25T02:03:57.251Z,18.67
2019-04-25T02:06:24.936Z,20.60
2019-04-25T02:08:54.625Z,23.53
2019-04-25T02:11:51.046Z,25.73
2019-04-25T02:14:18.846Z,28.00
2019-04-25T02:16:46.699Z,25.47
2019-04-25T02:19:14.576Z,20.67
2019-04-25T02:21:43.430Z,30.73
2019-04-25T02:24:11.072Z,24.13
2019-04-25T02:26:38.723Z,31.37
2019-04-25T02:29:06.307Z,17.60
2019-04-25T02:31:34.752Z,17.57
2019-04-25T02:34:06.176Z,16.50
2019-04-25T02:36:34.461Z,16.17
2019-04-25T02:39:04.582Z,15.37
2019-04-25T02:41:30.946Z,20.90
2019-04-25T02:44:02.986Z,14.80
2019-04-25T02:46:46.090Z,13.80
2019-04-25T02:49:44.996Z,24.23
2019-04-25T02:52:18.257Z,20.67
2019-04-25T02:54:45.989Z,15.53
2019-04-25T02:57:14.630Z,21.90
2019-04-25T02:59:44.844Z,17.53
2019-04-25T03:02:12.197Z,12.03
2019-04-25T03:04:39.645Z,14.03
2019-04-25T03:07:10.690Z,17.13
2019-04-25T03:09:36.628Z,17.00
2019-04-25T03:12:06.490Z,11.93
2019-04-25T03:14:35.245Z,14.53
2019-04-25T03:17:05.258Z,18.70
2019-04-25T03:19:55.274Z,14.07
2019-04-25T03:22:26.635Z,15.97
2019-04-25T03:24:54.986Z,12.73
2019-04-25T03:27:22.510Z,14.10
2019-04-25T03:29:50.013Z,15.87
2019-04-25T03:32:19.997Z,13.47
2019-04-25T03:34:46.868Z,12.57
2019-04-25T03:37:14.355Z,17.10
2019-04-25T03:39:43.538Z,14.53
2019-04-25T03:42:12.029Z,12.97
2019-04-25T03:44:39.734Z,14.03
2019-04-25T03:47:07.782Z,16.67
2019-04-25T03:49:36.077Z,13.70
2019-04-25T03:52:05.016Z,12.73
2019-04-25T03:54:33.476Z,13.83
2019-04-25T03:57:00.929Z,12.80
2019-04-25T03:59:28.407Z,16.83
2019-04-25T04:01:55.903Z,16.90
2019-04-25T04:04:23.837Z,12.33
2019-04-25T04:06:51.383Z,14.90
2019-04-25T04:09:18.975Z,15.70
2019-04-25T04:11:47.748Z,14.53
2019-04-25T04:14:15.823Z,14.53
2019-04-25T04:17:06.719Z,12.93
2019-04-25T04:19:45.165Z,14.60
2019-04-25T04:22:28.220Z,12.73
2019-04-25T04:24:57.430Z,13.93
2019-04-25T04:27:26.025Z,16.63
2019-04-25T04:29:54.263Z,12.83
2019-04-25T04:32:21.871Z,18.43
2019-04-25T04:34:51.271Z,19.63
2019-04-25T04:37:18.804Z,14.40
2019-04-25T04:39:47.847Z,14.90
2019-04-25T04:42:16.112Z,14.30
2019-04-25T04:44:43.910Z,14.40
2019-04-25T04:47:12.115Z,16.60
2019-04-25T04:49:40.705Z,15.80
2019-04-25T04:52:08.334Z,16.87
2019-04-25T04:54:36.938Z,17.17
2019-04-25T04:57:16.714Z,12.57
2019-04-25T04:59:34.068Z,17.80
2019-04-25T05:02:28.594Z,16.07
2019-04-25T05:05:14.812Z,16.83
2019-04-25T05:07:56.049Z,19.37
2019-04-25T05:10:24.551Z,20.13
2019-04-25T05:12:53.278Z,15.30
2019-04-25T05:15:20.850Z,15.13
2019-04-25T05:17:48.441Z,15.20
2019-04-25T05:20:17.506Z,19.03
2019-04-25T05:22:45.264Z,19.60
2019-04-25T05:25:15.315Z,17.80
2019-04-25T05:27:57.672Z,18.83
2019-04-25T05:30:18.040Z,24.10
2019-04-25T05:32:45.565Z,18.57
2019-04-25T05:35:14.930Z,19.57
2019-04-25T05:37:43.606Z,17.23
2019-04-25T05:40:11.719Z,13.70
2019-04-25T05:42:54.269Z,20.00
2019-04-25T05:45:25.730Z,16.47
2019-04-25T05:47:54.131Z,16.93
2019-04-25T05:50:22.528Z,19.90
2019-04-25T05:52:51.033Z,22.43
2019-04-25T05:55:19.989Z,30.20
2019-04-25T05:57:50.247Z,17.10
2019-04-25T06:00:18.948Z,17.77
2019-04-25T06:02:46.535Z,19.77
2019-04-25T06:05:14.943Z,19.63
2019-04-25T06:07:43.230Z,15.43
2019-04-25T06:10:45.844Z,15.00
2019-04-25T06:13:38.665Z,18.73
2019-04-25T06:16:11.418Z,19.83
2019-04-25T06:18:55.028Z,18.47
2019-04-25T06:21:23.565Z,22.77
2019-04-25T06:24:17.098Z,20.27
2019-04-25T06:27:08.240Z,19.03
2019-04-25T06:29:35.759Z,25.53
2019-04-25T06:32:06.554Z,20.43
2019-04-25T06:34:34.650Z,23.63
2019-04-25T06:37:04.252Z,20.83
2019-04-25T06:39:32.222Z,17.37
2019-04-25T06:41:59.806Z,15.73
2019-04-25T06:44:34.531Z,17.47
2019-04-25T06:47:10.611Z,13.33
2019-04-25T06:49:38.405Z,18.90
2019-04-25T06:52:05.872Z,22.47
2019-04-25T06:54:33.565Z,13.37
2019-04-25T06:57:04.432Z,14.03
2019-04-25T06:59:32.830Z,19.03
2019-04-25T07:02:01.582Z,14.67
2019-04-25T07:04:29.746Z,13.90
2019-04-25T07:07:09.379Z,14.00
2019-04-25T07:09:28.498Z,11.83
2019-04-25T07:11:56.146Z,15.70
2019-04-25T07:14:25.867Z,13.80
2019-04-25T07:16:53.324Z,12.93
2019-04-25T07:19:20.970Z,14.83
2019-04-25T07:21:48.453Z,13.80
2019-04-25T07:24:17.515Z,14.83
2019-04-25T07:26:53.945Z,11.87
2019-04-25T07:29:39.863Z,14.17
2019-04-25T07:32:15.064Z,14.13
2019-04-25T07:34:43.818Z,17.57
2019-04-25T07:37:13.151Z,12.87
2019-04-25T07:39:40.932Z,13.60
2019-04-25T07:42:08.498Z,10.03
2019-04-25T07:44:49.324Z,12.80
2019-04-25T07:47:05.664Z,18.03
2019-04-25T07:49:34.557Z,11.13
2019-04-25T07:52:03.600Z,13.23
2019-04-25T07:54:31.183Z,33.70
2019-04-25T07:56:58.683Z,11.83
2019-04-25T07:59:27.386Z,19.80
2019-04-25T08:01:55.339Z,11.30
2019-04-25T08:04:23.626Z,11.13
2019-04-25T08:06:51.363Z,13.17
2019-04-25T08:09:18.868Z,14.63
2019-04-25T08:11:46.500Z,12.57
2019-04-25T08:14:24.164Z,15.13
2019-04-25T08:16:55.132Z,15.13
2019-04-25T08:19:24.488Z,14.80
2019-04-25T08:21:53.696Z,9.93
2019-04-25T08:24:21.507Z,13.20
2019-04-25T08:26:49.055Z,17.20
2019-04-25T08:29:16.656Z,16.93
2019-04-25T08:31:45.329Z,12.07
2019-04-25T08:34:14.498Z,16.43
2019-04-25T08:36:42.237Z,16.93
2019-04-25T08:39:11.930Z,21.17
2019-04-25T08:41:39.438Z,11.27
2019-04-25T08:44:07.510Z,10.97
2019-04-25T08:46:36.772Z,14.13
2019-04-25T08:49:24.714Z,12.97
2019-04-25T08:51:55.513Z,17.10
2019-04-25T08:54:47.391Z,13.90
2019-04-25T08:57:25.709Z,15.10
2019-04-25T09:00:15.411Z,14.97
2019-04-25T09:02:56.596Z,15.10
2019-04-25T09:05:40.811Z,15.73
2019-04-25T09:08:08.604Z,14.93
2019-04-25T09:10:38.409Z,13.30
2019-04-25T09:13:06.743Z,20.00
2019-04-25T09:15:36.575Z,24.20
2019-04-25T09:18:04.104Z,19.10
2019-04-25T09:20:31.584Z,18.97
2019-04-25T09:22:59.070Z,12.87
2019-04-25T09:25:26.664Z,14.80
2019-04-25T09:27:54.512Z,19.40
2019-04-25T09:30:23.967Z,20.00
2019-04-25T09:32:53.356Z,17.57
2019-04-25T09:35:21.058Z,14.03
2019-04-25T09:37:48.653Z,17.97
2019-04-25T09:40:16.788Z,19.93
2019-04-25T09:42:46.237Z,16.77
2019-04-25T09:45:49.490Z,16.27
2019-04-25T09:48:28.445Z,28.50
2019-04-25T09:51:06.186Z,22.30
2019-04-25T09:53:40.072Z,19.40
2019-04-25T09:56:14.783Z,27.93
2019-04-25T09:58:50.516Z,19.63
2019-04-25T10:01:18.082Z,18.87
2019-04-25T10:03:46.196Z,18.23
2019-04-25T10:06:16.672Z,19.03
2019-04-25T10:08:47.473Z,17.50
2019-04-25T10:11:15.639Z,18.40
2019-04-25T10:13:51.280Z,16.60
2019-04-25T10:16:18.846Z,20.00
2019-04-25T10:18:46.416Z,19.03
2019-04-25T10:21:14.440Z,14.20
2019-04-25T10:23:45.011Z,23.13
2019-04-25T10:26:12.662Z,22.70
2019-04-25T10:28:43.668Z,17.23
2019-04-25T10:31:13.490Z,16.33
2019-04-25T10:33:43.392Z,23.20
2019-04-25T10:36:12.049Z,20.10
2019-04-25T10:38:40.345Z,19.63
2019-04-25T10:41:08.392Z,17.40
2019-04-25T10:43:36.021Z,24.50
2019-04-25T10:46:05.342Z,26.43
2019-04-25T10:48:34.369Z,36.50
2019-04-25T10:51:04.018Z,23.23
2019-04-25T10:53:31.610Z,19.27
2019-04-25T10:55:59.060Z,22.23
2019-04-25T10:58:26.486Z,29.77
2019-04-25T11:00:54.089Z,24.17
2019-04-25T11:03:41.207Z,23.53
2019-04-25T11:06:09.450Z,28.00
2019-04-25T11:08:37.028Z,29.17
2019-04-25T11:11:04.643Z,22.90
2019-04-25T11:13:33.757Z,26.97
2019-04-25T11:16:03.511Z,23.50
2019-04-25T11:18:31.241Z,26.20
2019-04-25T11:20:59.247Z,24.70
2019-04-25T11:23:26.884Z,25.50
2019-04-25T11:25:55.446Z,27.37
2019-04-25T11:28:23.439Z,25.87
2019-04-25T11:30:52.351Z,24.60
2019-04-25T11:33:20.337Z,19.40
2019-04-25T11:35:50.262Z,30.80
2019-04-25T11:38:27.802Z,27.00
2019-04-25T11:41:04.273Z,27.37
2019-04-25T11:43:31.953Z,30.53
2019-04-25T11:45:59.623Z,24.10
2019-04-25T11:48:27.215Z,21.43
2019-04-25T11:50:55.867Z,25.47
2019-04-25T11:53:25.040Z,28.97
2019-04-25T11:55:53.786Z,24.23
2019-04-25T11:58:23.547Z,25.87
2019-04-25T12:00:57.745Z,25.77
2019-04-25T12:03:24.637Z,32.10
2019-04-25T12:05:53.144Z,26.87
2019-04-25T12:08:20.770Z,25.90
2019-04-25T12:10:48.237Z,22.57
2019-04-25T12:13:15.803Z,24.63
2019-04-25T12:15:46.055Z,25.43
2019-04-25T12:18:13.806Z,23.50
2019-04-25T12:20:41.547Z,27.40
2019-04-25T12:23:10.622Z,23.47
2019-04-25T12:25:38.410Z,28.40
2019-04-25T12:28:06.099Z,28.03
2019-04-25T12:30:38.053Z,31.27
2019-04-25T12:33:03.385Z,24.27
2019-04-25T12:35:30.960Z,21.77
2019-04-25T12:37:58.722Z,33.80
2019-04-25T12:40:26.350Z,29.20
2019-04-25T12:42:54.385Z,30.13
2019-04-25T12:45:36.991Z,33.47
2019-04-25T12:48:05.463Z,31.37
2019-04-25T12:50:33.632Z,29.93
2019-04-25T12:53:01.227Z,28.13
2019-04-25T12:55:28.723Z,34.97
2019-04-25T12:57:56.524Z,29.83
2019-04-25T13:00:25.680Z,29.63
2019-04-25T13:02:54.069Z,27.43
2019-04-25T13:05:21.902Z,34.43
2019-04-25T13:07:49.335Z,26.63
2019-04-25T13:10:16.899Z,25.37
2019-04-25T13:12:44.453Z,28.43
2019-04-25T13:15:13.075Z,35.43
2019-04-25T13:17:40.673Z,28.03
2019-04-25T13:20:08.449Z,22.10
2019-04-25T13:22:36.056Z,31.70
2019-04-25T13:25:06.761Z,33.87
2019-04-25T13:27:57.580Z,33.33
2019-04-25T13:31:01.279Z,17.47
2019-04-25T13:33:33.943Z,26.33
2019-04-25T13:36:08.265Z,30.33
2019-04-25T13:38:35.956Z,28.90
2019-04-25T13:41:04.071Z,27.77
2019-04-25T13:43:31.821Z,31.23
2019-04-25T13:45:59.510Z,30.10
2019-04-25T13:48:28.020Z,27.73
2019-04-25T13:50:55.838Z,24.47
2019-04-25T13:53:25.666Z,32.33
2019-04-25T13:55:53.382Z,29.80
2019-04-25T13:58:21.115Z,29.37
2019-04-25T14:00:49.790Z,26.07
2019-04-25T14:03:17.527Z,26.93
2019-04-25T14:05:45.253Z,31.90
2019-04-25T14:08:13.461Z,27.57
2019-04-25T14:10:42.211Z,26.37
2019-04-25T14:13:10.134Z,32.53
2019-04-25T14:15:43.117Z,27.37
2019-04-25T14:18:30.221Z,30.57
2019-04-25T14:21:05.070Z,26.87
2019-04-25T14:23:34.511Z,30.07
2019-04-25T14:26:02.261Z,23.87
2019-04-25T14:28:31.716Z,24.97
2019-04-25T14:30:59.322Z,27.83
2019-04-25T14:33:27.603Z,25.93
2019-04-25T14:35:56.295Z,31.63
2019-04-25T14:38:25.253Z,28.20
2019-04-25T14:40:53.184Z,22.67
2019-04-25T14:43:21.359Z,22.03
2019-04-25T14:45:49.759Z,25.47
2019-04-25T14:48:18.370Z,33.77
2019-04-25T14:50:46.026Z,17.90
2019-04-25T14:53:13.632Z,23.20
2019-04-25T14:55:58.334Z,31.83
2019-04-25T14:58:28.213Z,20.87
2019-04-25T15:00:55.825Z,30.07
2019-04-25T15:03:24.038Z,32.73
2019-04-25T15:05:51.649Z,28.17
2019-04-25T15:08:19.249Z,27.30
2019-04-25T15:10:48.462Z,40.70
2019-04-25T15:13:16.159Z,30.07
2019-04-25T15:15:43.767Z,40.13
2019-04-25T15:18:11.267Z,31.13
2019-04-25T15:20:38.978Z,23.30
2019-04-25T15:23:06.506Z,28.27
2019-04-25T15:25:33.915Z,27.63
2019-04-25T15:28:01.644Z,25.03
2019-04-25T15:30:31.520Z,28.50
2019-04-25T15:32:59.059Z,31.20
2019-04-25T15:35:34.332Z,32.40
2019-04-25T15:38:07.532Z,34.23
2019-04-25T15:40:41.175Z,26.53
2019-04-25T15:43:40.324Z,36.63
2019-04-25T15:46:14.063Z,30.27
2019-04-25T15:48:41.708Z,28.23
2019-04-25T15:51:09.246Z,26.87
2019-04-25T15:53:36.813Z,30.03
2019-04-25T15:56:04.501Z,30.87
2019-04-25T15:58:31.963Z,26.73
2019-04-25T16:00:59.440Z,32.37
2019-04-25T16:03:27.171Z,26.40
2019-04-25T16:05:55.759Z,26.10
2019-04-25T16:08:23.248Z,21.73
2019-04-25T16:10:51.058Z,22.73
2019-04-25T16:13:18.534Z,23.67
2019-04-25T16:15:46.031Z,15.20
2019-04-25T16:18:13.777Z,19.97
2019-04-25T16:20:41.360Z,22.23
2019-04-25T16:23:09.324Z,21.17
2019-04-25T16:25:36.855Z,25.93
2019-04-25T16:28:04.479Z,19.37
2019-04-25T16:30:33.160Z,22.20
2019-04-25T16:33:00.723Z,21.50
2019-04-25T16:35:28.600Z,25.83
2019-04-25T16:37:57.229Z,17.77
2019-04-25T16:40:25.292Z,21.33
2019-04-25T16:42:52.952Z,27.33
2019-04-25T16:45:20.646Z,27.47
2019-04-25T16:47:48.154Z,21.80
2019-04-25T16:50:16.804Z,24.37
2019-04-25T16:52:44.378Z,27.23
2019-04-25T16:55:12.503Z,22.70
2019-04-25T16:57:39.925Z,21.23
2019-04-25T17:00:10.574Z,23.23
2019-04-25T17:02:40.868Z,19.03
2019-04-25T17:05:09.556Z,25.73
2019-04-25T17:07:38.468Z,20.57
2019-04-25T17:10:06.720Z,27.63
2019-04-25T17:12:34.396Z,28.60
2019-04-25T17:15:19.744Z,25.67
2019-04-25T17:18:05.471Z,22.73
2019-04-25T17:20:37.792Z,24.63
2019-04-25T17:23:05.797Z,23.03
2019-04-25T17:25:34.606Z,23.60
2019-04-25T17:28:02.252Z,21.37
2019-04-25T17:30:32.604Z,24.50
2019-04-25T17:33:20.132Z,18.37
2019-04-25T17:36:25.173Z,22.17
2019-04-25T17:38:58.911Z,14.27
2019-04-25T17:41:26.457Z,23.30
2019-04-25T17:43:54.067Z,17.40
2019-04-25T17:46:22.901Z,17.20
2019-04-25T17:48:50.391Z,17.63
2019-04-25T17:51:17.990Z,17.67
2019-04-25T17:53:45.523Z,25.50
2019-04-25T17:56:13.115Z,21.03
2019-04-25T17:58:41.251Z,22.90
2019-04-25T18:01:10.223Z,21.47
2019-04-25T18:03:37.809Z,21.20
2019-04-25T18:06:05.338Z,23.57
2019-04-25T18:08:33.402Z,20.80
2019-04-25T18:11:02.262Z,14.90
2019-04-25T18:13:29.761Z,25.73
2019-04-25T18:16:10.222Z,25.67
2019-04-25T18:18:46.782Z,25.07
2019-04-25T18:21:14.296Z,20.60
2019-04-25T18:24:07.011Z,19.30
2019-04-25T18:26:54.147Z,23.73
2019-04-25T18:29:22.020Z,27.40
2019-04-25T18:31:49.594Z,20.67
2019-04-25T18:34:32.295Z,18.30
2019-04-25T18:37:28.903Z,26.03
2019-04-25T18:40:05.069Z,20.57
2019-04-25T18:42:50.799Z,16.87
2019-04-25T18:45:23.526Z,23.73
2019-04-25T18:47:51.075Z,21.63
2019-04-25T18:50:20.394Z,22.13
2019-04-25T18:53:19.654Z,25.90
2019-04-25T18:56:02.086Z,22.93
2019-04-25T18:58:49.276Z,20.57
2019-04-25T19:01:38.021Z,21.43
2019-04-25T19:04:28.151Z,27.23
2019-04-25T19:06:58.302Z,18.03
2019-04-25T19:09:25.312Z,22.80
2019-04-25T19:11:52.786Z,18.47
2019-04-25T19:14:20.328Z,30.03
2019-04-25T19:16:50.326Z,23.80
2019-04-25T19:19:18.050Z,21.80
2019-04-25T19:21:45.632Z,16.43
2019-04-25T19:24:13.118Z,20.37
2019-04-25T19:26:42.217Z,23.80
2019-04-25T19:29:10.300Z,19.80
2019-04-25T19:31:37.863Z,17.67
2019-04-25T19:34:05.401Z,24.43
2019-04-25T19:36:32.943Z,20.87
2019-04-25T19:39:00.477Z,19.23
2019-04-25T19:41:34.674Z,23.80
2019-04-25T19:44:11.283Z,15.43
2019-04-25T19:46:44.836Z,13.77
2019-04-25T19:49:12.664Z,17.80
2019-04-25T19:51:41.662Z,19.33
2019-04-25T19:54:09.311Z,17.27
2019-04-25T19:56:37.162Z,24.13
2019-04-25T19:59:05.309Z,17.97
2019-04-25T20:01:32.680Z,15.07
2019-04-25T20:04:11.272Z,16.33
2019-04-25T20:06:56.929Z,15.97
2019-04-25T20:09:56.144Z,18.77
2019-04-25T20:12:24.970Z,19.77
2019-04-25T20:14:53.493Z,13.73
2019-04-25T20:17:21.249Z,15.87
2019-04-25T20:19:50.021Z,17.90
2019-04-25T20:22:17.605Z,22.00
2019-04-25T20:24:47.039Z,14.50
2019-04-25T20:27:14.471Z,12.67
2019-04-25T20:29:42.270Z,12.77
2019-04-25T20:32:09.808Z,20.13
2019-04-25T20:34:37.270Z,12.37
2019-04-25T20:37:04.701Z,17.77
2019-04-25T20:39:32.291Z,14.13
2019-04-25T20:41:59.742Z,14.50
2019-04-25T20:44:27.181Z,15.13
2019-04-25T20:46:54.786Z,17.63
2019-04-25T20:49:22.388Z,17.00
2019-04-25T20:51:50.624Z,15.83
2019-04-25T20:54:18.173Z,15.63
2019-04-25T20:56:46.903Z,19.37
2019-04-25T20:59:16.413Z,14.60
2019-04-25T21:01:43.895Z,17.53
2019-04-25T21:04:30.877Z,16.73
2019-04-25T21:06:58.347Z,17.10
2019-04-25T21:09:25.956Z,15.23
2019-04-25T21:11:53.415Z,10.23
2019-04-25T21:14:46.989Z,17.50
2019-04-25T21:17:18.225Z,16.10
2019-04-25T21:19:48.625Z,13.20
2019-04-25T21:22:15.346Z,14.83
2019-04-25T21:24:42.885Z,17.10
2019-04-25T21:27:10.580Z,18.87
2019-04-25T21:29:38.193Z,15.63
2019-04-25T21:32:05.965Z,14.20
2019-04-25T21:34:33.461Z,15.03
2019-04-25T21:37:01.858Z,15.60
2019-04-25T21:39:44.237Z,18.03
2019-04-25T21:42:34.850Z,16.50
2019-04-25T21:45:02.828Z,16.43
2019-04-25T21:47:30.196Z,18.23
2019-04-25T21:49:58.586Z,16.03
2019-04-25T21:52:26.535Z,16.37
2019-04-25T21:54:54.715Z,15.80
2019-04-25T21:57:23.380Z,15.27
2019-04-25T22:00:00.378Z,14.77
2019-04-25T22:02:20.638Z,13.23
2019-04-25T22:04:49.743Z,17.23
2019-04-25T22:07:17.483Z,12.90
2019-04-25T22:09:45.602Z,16.30
2019-04-25T22:12:13.494Z,20.87
2019-04-25T22:14:40.964Z,14.73
2019-04-25T22:17:09.156Z,15.50
2019-04-25T22:19:36.914Z,14.70
2019-04-25T22:22:04.725Z,14.73
2019-04-25T22:24:32.161Z,14.27
2019-04-25T22:27:03.274Z,17.17
2019-04-25T22:29:33.611Z,11.83
2019-04-25T22:32:08.393Z,16.03
2019-04-25T22:34:51.675Z,13.20
2019-04-25T22:37:10.910Z,13.07
2019-04-25T22:39:38.757Z,16.33
2019-04-25T22:42:06.268Z,14.00
2019-04-25T22:44:34.203Z,11.73
2019-04-25T22:47:02.371Z,14.97
2019-04-25T22:49:29.819Z,11.73
2019-04-25T22:51:57.280Z,14.73
2019-04-25T22:54:26.338Z,16.43
2019-04-25T22:56:53.884Z,10.47
2019-04-25T22:59:21.620Z,10.50
2019-04-25T23:02:11.692Z,14.10
2019-04-25T23:05:12.081Z,11.90
2019-04-25T23:07:37.366Z,12.70
2019-04-25T23:10:06.255Z,18.47
2019-04-25T23:12:34.203Z,14.57
2019-04-25T23:15:02.570Z,11.03
2019-04-25T23:17:30.967Z,13.57
2019-04-25T23:19:58.780Z,16.67
2019-04-25T23:22:26.255Z,15.63
2019-04-25T23:24:59.257Z,15.70
2019-04-25T23:27:55.165Z,14.23
2019-04-25T23:30:26.520Z,14.73
2019-04-25T23:32:53.900Z,21.53
2019-04-25T23:35:30.159Z,16.67
2019-04-25T23:37:50.775Z,17.53
2019-04-25T23:40:18.283Z,14.93
2019-04-25T23:42:45.655Z,19.53
2019-04-25T23:45:13.194Z,20.27
2019-04-25T23:47:40.634Z,19.90
2019-04-25T23:50:08.794Z,18.13
2019-04-25T23:52:36.210Z,14.13
2019-04-25T23:55:03.950Z,13.03
2019-04-25T23:57:31.431Z,13.97
2019-04-25T23:59:58.884Z,19.90
